createdAt,value
2023-02-03T00:02:12.461Z,2.58
2023-02-03T00:04:40.892Z,2.43
2023-02-03T00:07:11.532Z,2.67
2023-02-03T00:09:40.215Z,3.00
2023-02-03T00:12:10.395Z,2.73
2023-02-03T00:14:39.045Z,2.67
2023-02-03T00:17:07.233Z,2.42
2023-02-03T00:19:35.991Z,2.80
2023-02-03T00:22:06.851Z,3.43
2023-02-03T00:24:35.282Z,2.38
2023-02-03T00:27:03.391Z,2.22
2023-02-03T00:29:33.223Z,2.33
2023-02-03T00:36:06.550Z,3.08
2023-02-03T00:38:35.100Z,2.75
2023-02-03T00:41:03.296Z,3.30
2023-02-03T00:43:32.046Z,2.57
2023-02-03T00:46:01.846Z,2.65
2023-02-03T00:48:31.155Z,2.95
2023-02-03T00:51:01.569Z,2.92
2023-02-03T00:53:30.271Z,2.72
2023-02-03T00:55:58.485Z,2.80
2023-02-03T00:58:27.353Z,2.42
2023-02-03T01:00:56.954Z,2.60
2023-02-03T01:03:26.850Z,2.60
2023-02-03T01:05:55.150Z,2.40
2023-02-03T01:08:24.396Z,2.47
2023-02-03T01:10:52.588Z,3.13
2023-02-03T01:13:21.047Z,3.58
2023-02-03T01:15:49.421Z,3.22
2023-02-03T01:18:17.862Z,3.08
2023-02-03T01:20:47.594Z,2.90
2023-02-03T01:23:16.131Z,3.15
2023-02-03T01:25:44.310Z,2.65
2023-02-03T01:28:13.831Z,2.42
2023-02-03T01:30:42.293Z,2.28
2023-02-03T01:33:11.138Z,2.10
2023-02-03T01:35:39.378Z,2.50
2023-02-03T01:38:09.262Z,3.15
2023-02-03T01:40:44.098Z,2.58
2023-02-03T01:43:12.582Z,2.20
2023-02-03T01:45:41.448Z,3.08
2023-02-03T01:48:10.282Z,2.35
2023-02-03T01:50:39.140Z,2.30
2023-02-03T01:53:13.394Z,2.35
2023-02-03T01:55:45.653Z,3.50
2023-02-03T01:58:17.565Z,2.97
2023-02-03T02:00:46.893Z,4.95
2023-02-03T02:03:16.558Z,3.97
2023-02-03T02:08:22.553Z,3.08
2023-02-03T02:10:51.674Z,5.10
2023-02-03T02:15:58.517Z,4.43
2023-02-03T02:18:51.451Z,4.43
2023-02-03T02:21:39.786Z,4.90
2023-02-03T02:24:59.062Z,6.85
2023-02-03T02:27:58.693Z,5.85
2023-02-03T02:30:41.347Z,5.30
2023-02-03T02:33:21.156Z,6.07
2023-02-03T02:35:58.570Z,4.85
2023-02-03T02:38:42.903Z,5.07
2023-02-03T02:41:20.641Z,5.55
2023-02-03T02:43:54.691Z,5.60
2023-02-03T02:46:32.483Z,5.43
2023-02-03T02:49:07.344Z,5.15
2023-02-03T02:51:37.928Z,4.53
2023-02-03T02:54:09.887Z,4.32
2023-02-03T02:56:41.093Z,5.38
2023-02-03T02:59:09.815Z,5.25
2023-02-03T03:01:38.304Z,5.57
2023-02-03T03:04:11.675Z,5.22
2023-02-03T03:06:44.435Z,5.40
2023-02-03T03:09:16.713Z,5.13
2023-02-03T03:11:51.477Z,4.85
2023-02-03T03:14:21.873Z,4.72
2023-02-03T03:16:55.122Z,4.82
2023-02-03T03:19:33.615Z,4.88
2023-02-03T03:22:06.932Z,4.60
2023-02-03T03:24:41.061Z,4.30
2023-02-03T03:27:14.502Z,3.70
2023-02-03T03:29:48.054Z,3.30
2023-02-03T03:32:17.247Z,3.30
2023-02-03T03:34:47.320Z,3.65
2023-02-03T03:37:20.883Z,3.85
2023-02-03T03:39:52.496Z,3.20
2023-02-03T03:42:26.496Z,3.38
2023-02-03T03:45:00.912Z,3.13
2023-02-03T03:47:35.373Z,2.65
2023-02-03T03:50:07.787Z,3.22
2023-02-03T03:52:39.177Z,2.78
2023-02-03T03:55:11.914Z,3.08
2023-02-03T03:57:44.950Z,2.30
2023-02-03T04:00:19.142Z,2.70
2023-02-03T04:02:53.101Z,2.58
2023-02-03T04:05:24.352Z,2.70
2023-02-03T04:07:53.011Z,2.55
2023-02-03T04:10:30.298Z,2.42
2023-02-03T04:12:58.778Z,2.50
2023-02-03T04:15:27.533Z,2.45
2023-02-03T04:17:58.862Z,2.15
2023-02-03T04:20:29.099Z,2.13
2023-02-03T04:22:58.416Z,2.00
2023-02-03T04:25:27.129Z,2.10
2023-02-03T04:27:56.516Z,2.03
2023-02-03T04:30:25.125Z,2.35
2023-02-03T04:32:53.933Z,2.17
2023-02-03T04:35:22.172Z,2.60
2023-02-03T04:37:53.639Z,2.33
2023-02-03T04:40:22.068Z,2.17
2023-02-03T04:42:52.624Z,2.38
2023-02-03T04:45:23.363Z,2.50
2023-02-03T04:47:54.747Z,2.33
2023-02-03T04:50:23.066Z,2.03
2023-02-03T04:52:52.979Z,2.55
2023-02-03T04:55:21.642Z,2.40
2023-02-03T04:57:51.290Z,2.40
2023-02-03T05:02:50.715Z,2.60
2023-02-03T05:05:19.376Z,2.50
2023-02-03T05:07:47.871Z,3.05
2023-02-03T05:10:17.640Z,2.85
2023-02-03T05:12:46.506Z,3.00
2023-02-03T05:15:17.696Z,3.70
2023-02-03T05:17:46.386Z,3.88
2023-02-03T05:20:17.582Z,4.30
2023-02-03T05:22:46.760Z,3.58
2023-02-03T05:25:15.552Z,3.55
2023-02-03T05:27:54.385Z,3.28
2023-02-03T05:30:23.971Z,3.33
2023-02-03T05:32:52.604Z,3.60
2023-02-03T05:35:23.940Z,2.87
2023-02-03T05:37:52.517Z,3.95
2023-02-03T05:40:38.547Z,2.67
2023-02-03T05:43:09.025Z,2.88
2023-02-03T05:45:37.482Z,2.88
2023-02-03T05:48:07.507Z,2.80
2023-02-03T05:50:38.607Z,4.65
2023-02-03T05:53:08.413Z,4.47
2023-02-03T05:55:37.797Z,5.00
2023-02-03T05:58:06.567Z,5.45
2023-02-03T06:00:36.746Z,4.80
2023-02-03T06:03:05.837Z,6.07
2023-02-03T06:05:35.626Z,6.63
2023-02-03T06:08:04.085Z,7.00
2023-02-03T06:10:32.573Z,7.90
2023-02-03T06:13:02.215Z,7.90
2023-02-03T06:18:00.034Z,8.43
2023-02-03T06:20:33.716Z,8.18
2023-02-03T06:23:04.977Z,7.80
2023-02-03T06:25:33.430Z,8.18
2023-02-03T06:28:02.187Z,9.23
2023-02-03T06:30:30.820Z,8.48
2023-02-03T06:33:00.802Z,9.13
2023-02-03T06:35:29.168Z,7.95
2023-02-03T06:37:57.681Z,8.93
2023-02-03T06:40:26.511Z,8.02
2023-02-03T06:42:55.202Z,7.10
2023-02-03T06:45:24.925Z,7.50
2023-02-03T06:47:53.802Z,6.72
2023-02-03T06:50:23.374Z,6.50
2023-02-03T06:52:52.191Z,5.97
2023-02-03T06:55:22.480Z,5.78
2023-02-03T06:57:50.995Z,5.80
2023-02-03T07:00:21.024Z,6.07
2023-02-03T07:02:57.768Z,5.90
2023-02-03T07:05:28.326Z,5.88
2023-02-03T07:07:57.320Z,6.13
2023-02-03T07:10:25.708Z,6.70
2023-02-03T07:12:54.267Z,6.57
2023-02-03T07:15:22.421Z,7.80
2023-02-03T07:17:54.740Z,6.57
2023-02-03T07:20:23.907Z,5.90
2023-02-03T07:22:59.096Z,6.13
2023-02-03T07:25:28.290Z,6.45
2023-02-03T07:30:24.677Z,5.75
2023-02-03T07:32:54.351Z,5.80
2023-02-03T07:37:50.925Z,5.78
2023-02-03T07:40:21.649Z,5.88
2023-02-03T07:42:52.887Z,5.60
2023-02-03T07:45:22.254Z,6.13
2023-02-03T07:47:50.689Z,5.32
2023-02-03T07:50:19.183Z,5.28
2023-02-03T07:52:47.622Z,5.53
2023-02-03T07:55:16.143Z,5.70
2023-02-03T07:57:46.242Z,5.60
2023-02-03T08:00:17.082Z,5.40
2023-02-03T08:02:45.732Z,5.07
2023-02-03T08:05:14.966Z,5.18
2023-02-03T08:10:13.255Z,5.15
2023-02-03T08:12:45.095Z,4.80
2023-02-03T08:15:15.903Z,5.28
2023-02-03T08:17:44.826Z,5.10
2023-02-03T08:20:13.719Z,5.28
2023-02-03T08:22:42.176Z,5.15
2023-02-03T08:25:10.927Z,5.40
2023-02-03T08:27:39.904Z,5.85
2023-02-03T08:30:10.933Z,5.72
2023-02-03T08:32:40.985Z,5.40
2023-02-03T08:35:10.259Z,5.28
2023-02-03T08:37:39.229Z,5.20
2023-02-03T08:40:09.020Z,5.53
2023-02-03T08:42:37.459Z,5.15
2023-02-03T08:45:07.015Z,5.22
2023-02-03T08:47:39.541Z,6.00
2023-02-03T08:50:10.370Z,5.13
2023-02-03T08:52:39.079Z,6.40
2023-02-03T08:55:08.833Z,5.65
2023-02-03T08:57:38.033Z,5.72
2023-02-03T09:00:10.085Z,5.40
2023-02-03T09:02:39.917Z,6.00
2023-02-03T09:05:11.969Z,5.23
2023-02-03T09:07:40.546Z,5.88
2023-02-03T09:10:09.192Z,6.13
2023-02-03T09:12:37.785Z,6.28
2023-02-03T09:15:06.681Z,6.15
2023-02-03T09:17:35.241Z,5.63
2023-02-03T09:20:03.447Z,5.78
2023-02-03T09:22:33.708Z,6.13
2023-02-03T09:25:02.169Z,6.50
2023-02-03T09:27:30.649Z,5.78
2023-02-03T09:29:59.122Z,6.18
2023-02-03T09:32:27.894Z,6.72
2023-02-03T09:34:56.064Z,6.10
2023-02-03T09:37:24.761Z,6.63
2023-02-03T09:39:54.723Z,5.93
2023-02-03T09:42:53.867Z,6.53
2023-02-03T09:45:27.075Z,6.05
2023-02-03T09:48:02.434Z,5.03
2023-02-03T09:50:34.194Z,6.95
2023-02-03T09:53:08.602Z,6.28
2023-02-03T09:55:42.423Z,6.50
2023-02-03T09:58:13.628Z,5.97
2023-02-03T10:00:44.919Z,6.35
2023-02-03T10:03:26.425Z,6.15
2023-02-03T10:06:09.615Z,6.10
2023-02-03T10:08:53.006Z,6.20
2023-02-03T10:11:35.042Z,6.20
2023-02-03T10:14:21.451Z,6.35
2023-02-03T10:17:07.551Z,6.75
2023-02-03T10:19:46.934Z,6.60
2023-02-03T10:22:19.857Z,6.57
2023-02-03T10:24:53.266Z,7.32
2023-02-03T10:27:25.813Z,7.07
2023-02-03T10:30:02.159Z,7.07
2023-02-03T10:32:30.502Z,8.85
2023-02-03T10:34:59.349Z,8.38
2023-02-03T10:37:30.809Z,8.38
2023-02-03T10:40:01.855Z,9.20
2023-02-03T10:42:47.725Z,10.85
2023-02-03T10:45:16.452Z,10.00
2023-02-03T10:47:49.616Z,11.05
2023-02-03T10:50:20.814Z,10.07
2023-02-03T10:52:49.567Z,10.13
2023-02-03T10:55:32.253Z,9.00
2023-02-03T10:58:12.890Z,9.27
2023-02-03T11:00:41.545Z,10.13
2023-02-03T11:03:25.162Z,11.38
2023-02-03T11:06:08.964Z,11.25
2023-02-03T11:08:39.504Z,9.63
2023-02-03T11:11:09.953Z,10.15
2023-02-03T11:13:39.784Z,11.13
2023-02-03T11:16:15.507Z,9.77
2023-02-03T11:18:49.476Z,9.55
2023-02-03T11:21:21.129Z,10.00
2023-02-03T11:23:56.275Z,11.15
2023-02-03T11:26:28.569Z,12.18
2023-02-03T11:29:00.982Z,10.52
2023-02-03T11:31:31.266Z,10.75
2023-02-03T11:34:02.937Z,11.18
2023-02-03T11:36:34.285Z,10.48
2023-02-03T11:39:29.826Z,9.70
2023-02-03T11:41:58.301Z,10.13
2023-02-03T11:44:31.142Z,10.32
2023-02-03T11:47:03.731Z,10.65
2023-02-03T11:50:13.714Z,9.20
2023-02-03T11:53:03.063Z,8.77
2023-02-03T11:55:42.097Z,8.60
2023-02-03T11:58:59.105Z,9.10
2023-02-03T12:01:49.965Z,8.93
2023-02-03T12:04:45.257Z,9.35
2023-02-03T12:07:33.594Z,8.13
2023-02-03T12:10:08.657Z,8.52
2023-02-03T12:12:50.346Z,8.35
2023-02-03T12:15:50.341Z,8.43
2023-02-03T12:18:42.387Z,9.68
2023-02-03T12:21:31.734Z,9.32
2023-02-03T12:24:07.428Z,9.95
2023-02-03T12:26:44.454Z,10.40
2023-02-03T12:29:18.065Z,10.13
2023-02-03T12:31:52.366Z,10.00
2023-02-03T12:34:28.411Z,9.35
2023-02-03T12:37:03.382Z,10.88
2023-02-03T12:39:37.726Z,12.00
2023-02-03T12:42:20.351Z,11.10
2023-02-03T12:44:52.388Z,11.25
2023-02-03T12:47:29.587Z,9.77
2023-02-03T12:50:05.663Z,11.87
2023-02-03T12:52:41.530Z,11.10
2023-02-03T12:55:20.247Z,10.65
2023-02-03T12:57:55.144Z,11.10
2023-02-03T13:00:36.052Z,10.90
2023-02-03T13:03:14.815Z,11.02
2023-02-03T13:05:52.223Z,11.20
2023-02-03T13:08:29.837Z,10.38
2023-02-03T13:11:08.060Z,10.25
2023-02-03T13:13:39.801Z,11.30
2023-02-03T13:16:10.962Z,10.45
2023-02-03T13:18:42.552Z,12.10
2023-02-03T13:21:13.608Z,9.30
2023-02-03T13:23:47.808Z,10.60
2023-02-03T13:26:41.304Z,10.57
2023-02-03T13:29:31.244Z,9.73
2023-02-03T13:32:12.751Z,10.05
2023-02-03T13:35:01.434Z,11.10
2023-02-03T13:37:54.963Z,10.82
2023-02-03T13:40:40.221Z,9.65
2023-02-03T13:43:16.218Z,10.05
2023-02-03T13:45:51.082Z,10.65
2023-02-03T13:48:23.652Z,10.23
2023-02-03T13:51:05.016Z,9.38
2023-02-03T13:53:39.368Z,10.38
2023-02-03T13:56:10.894Z,10.07
2023-02-03T13:58:40.687Z,9.20
2023-02-03T14:01:41.768Z,9.25
2023-02-03T14:04:31.793Z,9.25
2023-02-03T14:07:07.188Z,9.48
2023-02-03T14:09:55.062Z,8.82
2023-02-03T14:12:55.702Z,10.55
2023-02-03T14:15:33.190Z,10.55
2023-02-03T14:18:32.923Z,11.15
2023-02-03T14:21:23.510Z,13.00
2023-02-03T14:24:00.222Z,13.65
2023-02-03T14:26:43.869Z,14.10
2023-02-03T14:29:27.373Z,14.52
2023-02-03T14:32:00.756Z,15.35
2023-02-03T14:34:35.715Z,16.00
2023-02-03T14:37:13.771Z,15.68
2023-02-03T14:40:29.416Z,17.75
2023-02-03T14:43:30.390Z,17.17
2023-02-03T14:46:35.854Z,17.23
2023-02-03T14:49:32.253Z,15.80
2023-02-03T14:52:27.432Z,17.13
2023-02-03T14:55:10.519Z,15.90
2023-02-03T14:57:49.187Z,15.90
2023-02-03T15:00:31.438Z,15.32
2023-02-03T15:03:23.235Z,14.90
2023-02-03T15:05:53.443Z,17.05
2023-02-03T15:08:33.253Z,16.23
2023-02-03T15:11:01.761Z,14.25
2023-02-03T15:13:32.899Z,15.80
2023-02-03T15:16:04.321Z,14.27
2023-02-03T15:18:36.356Z,15.23
2023-02-03T15:21:06.166Z,14.30
2023-02-03T15:23:43.204Z,14.23
2023-02-03T15:26:15.555Z,15.18
2023-02-03T15:28:46.539Z,15.05
2023-02-03T15:31:21.767Z,14.82
2023-02-03T15:33:53.920Z,14.85
2023-02-03T15:36:28.869Z,17.38
2023-02-03T15:39:06.725Z,14.95
2023-02-03T15:41:35.345Z,15.00
2023-02-03T15:44:15.079Z,13.90
2023-02-03T15:49:22.595Z,14.20
2023-02-03T15:51:57.179Z,13.00
2023-02-03T15:54:40.710Z,11.40
2023-02-03T15:57:12.008Z,12.23
2023-02-03T15:59:43.819Z,13.10
2023-02-03T16:02:18.923Z,12.77
2023-02-03T16:04:50.584Z,11.85
2023-02-03T16:07:23.581Z,11.57
2023-02-03T16:09:54.179Z,11.57
2023-02-03T16:12:25.460Z,11.07
2023-02-03T16:14:57.209Z,9.63
2023-02-03T16:17:29.463Z,9.35
2023-02-03T16:20:24.834Z,9.98
2023-02-03T16:23:18.660Z,8.85
2023-02-03T16:26:17.709Z,8.88
2023-02-03T16:29:13.726Z,8.18
2023-02-03T16:32:04.724Z,7.47
2023-02-03T16:34:50.781Z,7.13
2023-02-03T16:37:43.515Z,7.50
2023-02-03T16:40:31.859Z,7.55
2023-02-03T16:43:18.022Z,7.85
2023-02-03T16:46:03.476Z,7.80
2023-02-03T16:48:51.348Z,8.43
2023-02-03T16:51:21.122Z,7.43
2023-02-03T16:53:49.595Z,8.15
2023-02-03T16:56:19.287Z,8.52
2023-02-03T16:58:47.755Z,8.55
2023-02-03T17:01:16.410Z,7.80
2023-02-03T17:03:46.888Z,8.18
2023-02-03T17:06:15.178Z,8.27
2023-02-03T17:08:44.136Z,9.05
2023-02-03T17:11:16.647Z,9.43
2023-02-03T17:13:46.176Z,6.97
2023-02-03T17:16:16.685Z,9.10
2023-02-03T17:18:48.442Z,8.77
2023-02-03T17:21:20.855Z,10.02
2023-02-03T17:23:49.896Z,9.13
2023-02-03T17:26:18.661Z,7.75
2023-02-03T17:28:47.526Z,8.32
2023-02-03T17:31:18.953Z,8.38
2023-02-03T17:33:52.343Z,8.93
2023-02-03T17:36:22.027Z,8.35
2023-02-03T17:55:30.652Z,8.48
2023-02-03T17:58:00.898Z,8.55
2023-02-03T18:00:29.759Z,8.95
2023-02-03T18:02:58.382Z,7.75
2023-02-03T18:05:29.834Z,7.60
2023-02-03T18:08:01.055Z,7.75
2023-02-03T18:10:34.774Z,8.00
2023-02-03T18:13:04.720Z,8.60
2023-02-03T18:15:33.268Z,8.57
2023-02-03T18:18:01.876Z,9.43
2023-02-03T18:20:33.454Z,14.10
2023-02-03T18:23:01.683Z,14.82
2023-02-03T18:25:30.414Z,12.38
2023-02-03T18:27:58.675Z,10.17
2023-02-03T18:30:27.626Z,11.77
2023-02-03T18:32:57.800Z,10.18
2023-02-03T18:35:26.688Z,10.80
2023-02-03T18:37:56.266Z,9.63
2023-02-03T18:40:25.956Z,12.05
2023-02-03T18:45:24.978Z,9.45
2023-02-03T18:47:53.422Z,11.33
2023-02-03T18:50:22.429Z,13.93
2023-02-03T18:52:54.882Z,13.32
2023-02-03T18:55:25.163Z,11.93
2023-02-03T18:57:53.382Z,11.88
2023-02-03T19:00:22.158Z,10.27
2023-02-03T19:02:51.119Z,11.38
2023-02-03T19:07:49.561Z,10.18
2023-02-03T19:10:19.157Z,11.48
2023-02-03T19:12:48.967Z,13.93
2023-02-03T19:15:18.862Z,10.57
2023-02-03T19:17:48.442Z,10.10
2023-02-03T19:20:17.622Z,11.00
2023-02-03T19:22:46.476Z,10.32
2023-02-03T19:25:17.873Z,9.27
2023-02-03T19:27:46.094Z,8.52
2023-02-03T19:30:17.668Z,7.57
2023-02-03T19:32:47.224Z,8.80
2023-02-03T19:35:15.921Z,8.73
2023-02-03T19:37:44.297Z,8.17
2023-02-03T19:40:13.095Z,8.45
2023-02-03T19:42:41.370Z,8.17
2023-02-03T19:45:11.345Z,7.57
2023-02-03T19:47:41.898Z,8.70
2023-02-03T19:50:20.353Z,8.15
2023-02-03T19:52:49.377Z,6.73
2023-02-03T19:55:17.896Z,7.10
2023-02-03T19:57:46.026Z,8.00
2023-02-03T20:00:18.298Z,7.88
2023-02-03T20:02:48.721Z,6.78
2023-02-03T20:05:17.973Z,7.95
2023-02-03T20:07:46.280Z,7.60
2023-02-03T20:10:16.607Z,6.55
2023-02-03T20:12:44.847Z,7.03
2023-02-03T20:15:15.343Z,7.20
2023-02-03T20:17:43.966Z,7.07
2023-02-03T20:20:14.872Z,6.80
2023-02-03T20:22:43.449Z,8.00
2023-02-03T20:25:12.433Z,7.75
2023-02-03T20:27:40.979Z,7.55
2023-02-03T20:30:13.597Z,8.15
2023-02-03T20:32:42.900Z,8.30
2023-02-03T20:35:13.468Z,7.65
2023-02-03T20:37:41.708Z,6.47
2023-02-03T20:40:18.383Z,6.83
2023-02-03T20:42:47.475Z,7.43
2023-02-03T20:45:17.731Z,8.32
2023-02-03T20:47:46.923Z,8.98
2023-02-03T20:50:20.155Z,8.30
2023-02-03T20:52:48.940Z,7.97
2023-02-03T20:55:20.012Z,16.10
2023-02-03T20:57:51.650Z,15.68
2023-02-03T21:00:22.880Z,41.38
2023-02-03T21:03:09.318Z,16.77
2023-02-03T21:05:42.034Z,20.77
2023-02-03T21:08:14.039Z,11.77
2023-02-03T21:10:46.155Z,9.93
2023-02-03T21:13:22.406Z,7.35
2023-02-03T21:15:52.734Z,5.47
2023-02-03T21:18:36.125Z,5.85
2023-02-03T21:21:08.416Z,7.70
2023-02-03T21:23:41.291Z,6.80
2023-02-03T21:26:19.481Z,8.02
2023-02-03T21:28:49.191Z,10.52
2023-02-03T21:31:24.571Z,11.10
2023-02-03T21:33:54.031Z,7.78
2023-02-03T21:36:25.945Z,9.27
2023-02-03T21:38:56.365Z,8.30
2023-02-03T21:41:26.754Z,9.30
2023-02-03T21:43:57.002Z,10.63
2023-02-03T21:46:27.246Z,9.98
2023-02-03T21:48:56.120Z,10.07
2023-02-03T21:51:28.963Z,10.00
2023-02-03T21:53:59.103Z,8.75
2023-02-03T21:56:30.255Z,7.90
2023-02-03T21:58:59.980Z,8.88
2023-02-03T22:01:36.851Z,7.78
2023-02-03T22:04:06.666Z,7.15
2023-02-03T22:06:47.346Z,7.28
2023-02-03T22:09:17.281Z,6.18
2023-02-03T22:11:46.171Z,6.50
2023-02-03T22:14:14.794Z,5.97
2023-02-03T22:16:44.232Z,5.32
2023-02-03T22:19:12.569Z,4.95
2023-02-03T22:21:42.498Z,5.45
2023-02-03T22:24:11.087Z,5.53
2023-02-03T22:26:39.794Z,5.40
2023-02-03T22:29:07.992Z,4.78
2023-02-03T22:31:36.584Z,4.73
2023-02-03T22:34:04.907Z,5.47
2023-02-03T22:36:33.803Z,5.45
2023-02-03T22:39:03.382Z,4.97
2023-02-03T22:41:31.922Z,4.75
2023-02-03T22:44:00.081Z,4.20
2023-02-03T22:46:28.581Z,4.20
2023-02-03T22:48:56.930Z,3.50
2023-02-03T22:51:25.507Z,4.00
2023-02-03T22:53:54.183Z,5.20
2023-02-03T22:56:26.937Z,6.80
2023-02-03T22:58:55.143Z,3.42
2023-02-03T23:01:23.620Z,3.17
2023-02-03T23:03:51.756Z,6.50
2023-02-03T23:06:20.482Z,4.57
2023-02-03T23:08:48.638Z,3.07
2023-02-03T23:11:17.103Z,2.73
2023-02-03T23:13:51.443Z,2.60
2023-02-03T23:16:19.903Z,2.70
2023-02-03T23:18:48.395Z,4.95
2023-02-03T23:21:17.088Z,6.38
2023-02-03T23:23:45.237Z,5.50
2023-02-03T23:26:13.695Z,3.57
2023-02-03T23:28:41.839Z,2.17
2023-02-03T23:31:12.061Z,1.83
2023-02-03T23:33:40.259Z,1.40
2023-02-03T23:36:08.254Z,1.60
2023-02-03T23:38:36.807Z,1.70
2023-02-03T23:41:05.356Z,1.50
2023-02-03T23:43:33.510Z,1.40
2023-02-03T23:46:01.977Z,1.48
2023-02-03T23:48:31.566Z,1.63
2023-02-03T23:50:59.996Z,1.67
2023-02-03T23:53:28.842Z,1.40
2023-02-03T23:55:59.431Z,1.52
2023-02-03T23:58:27.671Z,1.90
